CheckWX is a tool to help pilots better visualize weather data.  It is not intended as a substitute for an official pre-flight weather briefing.

23:55:10 UTC

KCBF METAR
Council Bluffs Municipal Airport
Council Bluffs, Iowa, USA
Current

20 mins ago

KCBF 162335Z AUTO 16011KT 10SM CLR 10/M02 A2994 RMK AO2
Observed
Nov-16 @ 23:35 UTC
Wind
  • 160° at 11 KTS
Visibility
10 SM
Flight Rules
VFR
Cloud Levels
  • Clear skies
Temperature
10°C / 50°F
Dewpoint
-2°C / 28°F
Humidity
43%
Altimeter
29.94" Hg
Pressure
1013.92 hPa
Previous

40 mins ago

KCBF 162315Z AUTO 16012KT 10SM CLR 11/M02 A2993 RMK AO2
Observed
Nov-16 @ 23:15 UTC
Wind
  • 160° at 12 KTS
Visibility
10 SM
Flight Rules
VFR
Cloud Levels
  • Clear skies
Temperature
11°C / 52°F
Dewpoint
-2°C / 28°F
Humidity
41%
Altimeter
29.93" Hg
Pressure
1013.52 hPa
Previous

60 mins ago

KCBF 162255Z AUTO 16013G19KT 10SM CLR 11/M02 A2992 RMK AO2
Observed
Nov-16 @ 22:55 UTC
Wind
  • 160° at 13 KTS
  • Gusting to 19 KTS
Visibility
10 SM
Flight Rules
VFR
Cloud Levels
  • Clear skies
Temperature
11°C / 52°F
Dewpoint
-2°C / 28°F
Humidity
41%
Altimeter
29.92" Hg
Pressure
1013.22 hPa